METAR AND TAF INFORMATION
METAR FOR USPP
ADDS - METARS form results

(0256 UTC 26 April 2019)
Data provider http://aviationweather.gov/metar/data/
 
METAR text: USPP 260230Z 23003MPS CAVOK 01/M02 Q1016 R21/090060 NOSIG RMK QFE751
Conditions at: USPP (PERM/BOLSHOE SAV, RU) observed 0230 UTC 26 April 2019
Temperature: 1.0°C (34°F)
Dewpoint: -2.0°C (28°F) [RH = 80%]
Pressure (altimeter): 30.00 inches Hg (1016.0 mb)
Winds: from the SW (230 degrees) at 7 MPH (6 knots; 3.1 m/s)
Visibility: 6 or more miles (10+ km)
Ceiling: ceiling and visibility are OK
Clouds: unknown
Weather: no significant weather observed at this time

METAR text: USPP 260200Z 23003MPS CAVOK M00/M03 Q1017 R21/090060 NOSIG RMK QFE752
Conditions at: USPP (PERM/BOLSHOE SAV, RU) observed 0200 UTC 26 April 2019
Temperature: 0.0°C (32°F)
Dewpoint: -3.0°C (27°F) [RH = 80%]
Pressure (altimeter): 30.03 inches Hg (1017.0 mb)
Winds: from the SW (230 degrees) at 7 MPH (6 knots; 3.1 m/s)
Visibility: 6 or more miles (10+ km)
Ceiling: ceiling and visibility are OK
Clouds: unknown
Weather: no significant weather observed at this time

Forecast for: USPP (PERM/BOLSHOE SAV, RU)
Text: TAF USPP 260159Z 2603/2703 24003G08MPS CAVOK
Forecast period: 0300 to 0600 UTC 26 April 2019
Forecast type: FROM: standard forecast or significant change
Winds: from the WSW (240 degrees) at 7 MPH (6 knots; 3.1 m/s)
gusting to 18 MPH (16 knots; 8.2 m/s)
Visibility: 6 or more miles 10+ km)
Ceiling: unknown
Clouds: missing
Weather: NSW  (no significant weather)
Text: TEMPO 2603/2606 31003G09MPS 3100 -RA BKN011
Forecast period: 0300 to 0600 UTC 26 April 2019
Forecast type: TEMPORARY: The following changes expected for less than half the time period
Winds: from the NW (310 degrees) at 7 MPH (6 knots; 3.1 m/s)
gusting to 20 MPH (17 knots; 8.7 m/s)
Visibility: 1.93 miles (3.11 km)
Ceiling: 1100 feet AGL
Clouds: broken clouds at 1100 feet AGL
Weather: -RA  (light rain)
Text: BECMG 2606/2608 31003G10MPS BKN015
Forecast period: 0600 UTC 26 April 2019 to 0300 UTC 27 April 2019
Forecast type: BECOMING: Conditions expected to become as follows by 0800 UTC 26 April 2019
Winds: from the NW (310 degrees) at 7 MPH (6 knots; 3.1 m/s)
gusting to 22 MPH (19 knots; 9.8 m/s)
Visibility: 6 or more miles 10+ km)
Ceiling: 1500 feet AGL
Clouds: broken clouds at 1500 feet AGL
Weather: NSW  (no significant weather)

 AIRPORT MAP

 RUNWAY INFORMATION

 AIRPORT FREQUENCIES
Type APP Name PERM APP Frequency 127.1 MHZ
Type ATIS Name PERM ATIS Frequency 126.4 MHZ
Type GND Name TAXIING Frequency 121.7 MHZ
Type TWR Name PREM START Frequency 124 MHZ

 AIRPORT NEAR NAVIGATION AIDS
Type NDB Name Perm Frequency 705 KHZ
Type NDB Name Perm Frequency 705 KHZ



2018 Air Astana Virtual Airline